Rechercher aéroport 
image banner adimage banner adimage banner ad
image banner ad

17PS - Mountain Crest

Situé à Tidioute, United States

ICAO - 17PS, IATA -

Données fournies par Airmate  

Information générale

Coordonnées: N41°34'45" W79°26'30"
Élévation : 1641 feet MSL.
 
Voir autres Aéroports à Pennsylvania

Données opérationnelles

Special qualification required
Heure actuelle UTC:
Heure actuelle locale:
Météo à : KFKL - Venango Rgnl ( 41 km )
METAR: KFKL 132106Z AUTO 21015G22KT 7SM VCTS -RA FEW016 BKN034 OVC090 21/17 A2986 RMK AO2 TSE02B06 P0006
TAF: KFKL 131720Z 1318/1418 28005KT P6SM VCTS BKN050CB FM132200 32006KT P6SM SCT060 FM140500 00000KT P6SM SCT250 FM141300 29005KT P6SM SCT060
Voir NOTAMs / SUP AIP / TFR affectant cet aéroport [VIEW]
Fréquences de communication: [VIEW]

Pistes:

Identifiant RWYQFULongueur (ft)Largeur (ft)SurfaceLDA (ft)
012170100GRASS
192170100GRASS

Coordonnées de l'aéroport

Adresse: Tidioute United States

Vue satellite de 17PS